createdAt,value
2019-03-20T09:55:07.729Z,14.60
2019-03-20T09:57:37.240Z,11.20
2019-03-20T10:00:12.100Z,11.30
2019-03-20T10:02:41.004Z,11.30
2019-03-20T10:05:10.043Z,11.30
2019-03-20T10:07:39.021Z,11.30
2019-03-20T10:10:08.965Z,11.00
2019-03-20T10:12:37.940Z,11.00
2019-03-20T10:15:08.752Z,11.10
2019-03-20T10:17:37.775Z,11.10
2019-03-20T10:20:07.915Z,11.10
2019-03-20T10:22:38.945Z,11.10
2019-03-20T10:25:07.915Z,11.00
2019-03-20T10:27:36.965Z,11.00
2019-03-20T10:30:08.304Z,11.10
2019-03-20T10:32:37.317Z,11.20
2019-03-20T10:35:07.390Z,11.40
2019-03-20T10:37:36.333Z,11.60
2019-03-20T10:40:06.582Z,11.60
2019-03-20T10:42:35.612Z,11.70
2019-03-20T10:45:05.921Z,11.60
2019-03-20T10:47:34.868Z,11.70
2019-03-20T10:50:04.672Z,11.70
2019-03-20T10:52:33.677Z,11.70
2019-03-20T10:55:02.640Z,11.70
2019-03-20T10:57:31.552Z,11.70
2019-03-20T11:00:00.447Z,11.80
2019-03-20T11:02:29.400Z,11.70
2019-03-20T11:04:58.265Z,11.80
2019-03-20T11:07:27.307Z,11.70
2019-03-20T11:09:56.261Z,11.70
2019-03-20T11:12:25.364Z,11.80
2019-03-20T11:14:54.308Z,11.90
2019-03-20T11:17:23.289Z,12.10
2019-03-20T11:19:52.161Z,12.20
2019-03-20T11:22:21.041Z,12.20
2019-03-20T11:24:49.936Z,12.20
2019-03-20T11:27:18.953Z,12.30
2019-03-20T11:29:47.914Z,12.20
2019-03-20T11:32:16.868Z,12.20
2019-03-20T11:34:45.854Z,12.20
2019-03-20T11:37:14.799Z,12.20
2019-03-20T11:39:44.126Z,12.20
2019-03-20T11:42:13.197Z,12.30
2019-03-20T11:44:42.213Z,12.20
2019-03-20T11:47:11.278Z,12.30
2019-03-20T11:49:40.305Z,12.20
2019-03-20T11:52:09.266Z,12.20
2019-03-20T11:54:38.186Z,12.30
2019-03-20T11:57:07.161Z,12.30
2019-03-20T11:59:36.038Z,12.30
2019-03-20T12:02:05.164Z,12.50
2019-03-20T12:04:36.996Z,12.70
2019-03-20T12:07:05.906Z,12.80
2019-03-20T12:09:40.940Z,12.70
2019-03-20T12:12:05.611Z,12.70
2019-03-20T12:14:35.605Z,12.70
2019-03-20T12:17:04.659Z,12.70
2019-03-20T12:19:44.462Z,12.60
2019-03-20T12:22:04.290Z,12.70
2019-03-20T12:24:33.242Z,12.50
2019-03-20T12:27:02.122Z,12.40
2019-03-20T12:29:31.319Z,12.50
2019-03-20T12:32:00.362Z,12.50
2019-03-20T12:34:29.310Z,12.40
2019-03-20T12:36:58.595Z,12.40
2019-03-20T12:39:27.638Z,12.30
2019-03-20T12:41:56.975Z,12.40
2019-03-20T12:44:25.995Z,12.20
2019-03-20T12:46:54.971Z,12.20
2019-03-20T12:49:24.064Z,12.20
2019-03-20T12:51:53.386Z,12.20
2019-03-20T12:54:22.763Z,12.00
2019-03-20T12:56:51.723Z,12.10
2019-03-20T12:59:20.591Z,12.10
2019-03-20T13:01:49.611Z,12.10
2019-03-20T13:04:18.539Z,12.20
2019-03-20T13:06:47.427Z,12.10
2019-03-20T13:09:16.315Z,12.10
2019-03-20T13:11:45.203Z,12.20
2019-03-20T13:14:14.167Z,12.20
2019-03-20T13:16:43.059Z,12.20
2019-03-20T13:19:11.958Z,12.20
2019-03-20T13:21:40.944Z,12.20
2019-03-20T13:24:09.945Z,12.20
2019-03-20T13:26:38.899Z,12.30
2019-03-20T13:29:07.830Z,12.20
2019-03-20T13:31:36.851Z,12.10
2019-03-20T13:34:05.923Z,12.00
2019-03-20T13:36:34.883Z,12.00
2019-03-20T13:39:04.771Z,12.00
2019-03-20T13:41:33.815Z,12.00
2019-03-20T13:44:02.808Z,12.00
2019-03-20T13:46:31.787Z,12.00
2019-03-20T13:49:00.680Z,12.00
2019-03-20T13:51:29.917Z,11.90
2019-03-20T13:53:58.967Z,11.70
2019-03-20T13:56:27.927Z,11.50
2019-03-20T13:58:56.975Z,11.40
2019-03-20T14:01:26.059Z,11.40
2019-03-20T14:03:55.448Z,11.50
2019-03-20T14:06:24.480Z,11.60
2019-03-20T14:08:53.514Z,11.50
2019-03-20T14:11:22.592Z,11.50
2019-03-20T14:13:51.676Z,11.50
2019-03-20T14:16:20.624Z,11.60
2019-03-20T14:18:49.512Z,11.50
2019-03-20T14:21:18.542Z,11.50
2019-03-20T14:23:47.805Z,11.60
2019-03-20T14:26:16.892Z,11.70
2019-03-20T14:28:45.908Z,11.60
2019-03-20T14:31:14.872Z,11.60
2019-03-20T14:33:44.248Z,11.50
2019-03-20T14:36:13.400Z,11.50
2019-03-20T14:38:42.481Z,11.50
2019-03-20T14:41:21.153Z,11.50
2019-03-20T14:43:42.184Z,11.50
2019-03-20T14:46:11.265Z,11.60
2019-03-20T14:48:41.180Z,11.60
2019-03-20T14:51:10.241Z,11.60
2019-03-20T14:53:39.124Z,11.70
2019-03-20T14:56:08.200Z,11.80
2019-03-20T14:58:37.244Z,11.80
2019-03-20T15:01:06.333Z,11.90
2019-03-20T15:03:35.340Z,11.90
2019-03-20T15:06:04.400Z,12.00
2019-03-20T15:08:33.405Z,12.00
2019-03-20T15:11:02.380Z,12.00
2019-03-20T15:13:31.536Z,12.00
2019-03-20T15:16:04.870Z,12.10
2019-03-20T15:18:33.881Z,12.10
2019-03-20T15:21:02.953Z,12.00
2019-03-20T15:23:32.029Z,12.00
2019-03-20T15:26:07.105Z,12.10
2019-03-20T15:28:36.413Z,12.00
2019-03-20T15:31:05.461Z,12.00
2019-03-20T15:33:34.466Z,12.00
2019-03-20T15:36:03.497Z,12.00
2019-03-20T15:38:32.646Z,12.00
2019-03-20T15:41:02.082Z,12.00
2019-03-20T15:43:31.095Z,12.10
2019-03-20T15:46:00.089Z,12.10
2019-03-20T15:48:29.070Z,12.10
2019-03-20T15:50:57.985Z,12.20
2019-03-20T15:53:26.938Z,12.10
2019-03-20T15:55:56.377Z,12.10
2019-03-20T15:58:26.381Z,12.20
2019-03-20T16:00:55.441Z,12.20
2019-03-20T16:03:25.210Z,12.20
2019-03-20T16:05:54.314Z,12.20
2019-03-20T16:08:23.790Z,12.20
2019-03-20T16:10:53.450Z,12.10
2019-03-20T16:13:22.474Z,12.10
2019-03-20T16:15:52.331Z,12.10
2019-03-20T16:18:21.366Z,12.10
2019-03-20T16:20:50.366Z,12.10
2019-03-20T16:23:19.335Z,12.00
2019-03-20T16:25:48.688Z,12.10
2019-03-20T16:28:17.663Z,12.10
2019-03-20T16:30:46.698Z,12.10
2019-03-20T16:33:15.796Z,12.20
2019-03-20T16:35:44.916Z,12.20
2019-03-20T16:38:13.955Z,12.20
2019-03-20T16:40:43.035Z,12.10
2019-03-20T16:43:12.005Z,12.10
2019-03-20T16:45:41.247Z,12.10
2019-03-20T16:48:10.442Z,12.10
2019-03-20T16:50:39.497Z,12.10
2019-03-20T16:53:08.559Z,12.10
2019-03-20T16:55:37.655Z,12.10
2019-03-20T16:58:06.768Z,12.10
2019-03-20T17:00:35.872Z,12.10
2019-03-20T17:03:05.112Z,12.00
2019-03-20T17:05:34.175Z,12.00
2019-03-20T17:08:03.332Z,12.00
2019-03-20T17:10:34.907Z,12.00
2019-03-20T17:13:04.283Z,12.00
2019-03-20T17:15:33.439Z,11.90
2019-03-20T17:18:02.588Z,11.90
2019-03-20T17:20:31.580Z,11.90
2019-03-20T17:23:00.693Z,11.90
2019-03-20T17:25:29.791Z,11.90
2019-03-20T17:27:58.836Z,11.90
2019-03-20T17:30:30.092Z,11.90
2019-03-20T17:32:59.167Z,11.90
2019-03-20T17:35:28.387Z,11.90
2019-03-20T17:37:57.472Z,11.90
2019-03-20T17:40:26.989Z,11.90
2019-03-20T17:42:56.503Z,11.90
2019-03-20T17:45:26.676Z,11.90
2019-03-20T17:47:55.872Z,11.90
2019-03-20T17:50:26.630Z,11.80
2019-03-20T17:52:55.697Z,11.90
2019-03-20T17:55:24.756Z,11.90
2019-03-20T17:57:53.800Z,11.90
2019-03-20T18:00:42.011Z,11.90
2019-03-20T18:03:11.136Z,12.00
2019-03-20T18:05:40.276Z,12.00
2019-03-20T18:08:09.248Z,11.90
2019-03-20T18:10:38.690Z,11.80
2019-03-20T18:13:08.117Z,11.90
2019-03-20T18:15:37.161Z,11.80
2019-03-20T18:18:07.128Z,11.80
2019-03-20T18:20:36.241Z,11.80
2019-03-20T18:23:06.170Z,11.80
2019-03-20T18:25:35.501Z,11.80
2019-03-20T18:28:05.138Z,11.80
2019-03-20T18:30:34.337Z,11.80
2019-03-20T18:33:03.652Z,11.80
2019-03-20T18:35:32.766Z,11.80
2019-03-20T18:38:01.830Z,11.70
2019-03-20T18:40:31.064Z,11.70
2019-03-20T18:43:00.177Z,11.70
2019-03-20T18:45:29.238Z,11.70
2019-03-20T18:47:58.213Z,11.60
2019-03-20T18:50:27.272Z,11.60
2019-03-20T18:52:56.244Z,11.70
2019-03-20T18:55:25.325Z,11.60
2019-03-20T18:57:54.433Z,11.70
2019-03-20T19:00:25.636Z,11.60
2019-03-20T19:02:55.553Z,11.70
2019-03-20T19:05:28.060Z,11.60
2019-03-20T19:07:57.043Z,11.60
2019-03-20T19:10:26.114Z,11.60
2019-03-20T19:12:55.133Z,11.60
2019-03-20T19:15:24.234Z,11.50
2019-03-20T19:17:53.341Z,11.50
2019-03-20T19:20:22.983Z,11.50
2019-03-20T19:22:52.127Z,11.50
2019-03-20T19:25:21.282Z,11.50
2019-03-20T19:27:50.432Z,11.50
2019-03-20T19:30:20.205Z,11.50
2019-03-20T19:32:49.468Z,11.40
2019-03-20T19:35:18.526Z,11.50
2019-03-20T19:37:47.611Z,11.50
2019-03-20T19:40:17.210Z,11.40
2019-03-20T19:42:46.274Z,11.40
2019-03-20T19:45:15.770Z,11.40
2019-03-20T19:47:44.918Z,11.50
2019-03-20T19:50:14.431Z,11.50
2019-03-20T19:52:43.595Z,11.40
2019-03-20T19:55:13.034Z,11.50
2019-03-20T19:57:42.088Z,11.50
2019-03-20T20:00:14.199Z,11.50
2019-03-20T20:02:43.527Z,11.40
2019-03-20T20:05:16.006Z,11.40
2019-03-20T20:07:44.925Z,11.40
2019-03-20T20:10:14.075Z,11.40
2019-03-20T20:12:43.127Z,11.30
2019-03-20T20:15:14.774Z,11.20
2019-03-20T20:17:43.777Z,11.30
2019-03-20T20:20:14.658Z,11.20
2019-03-20T20:22:43.616Z,11.20
2019-03-20T20:25:12.647Z,11.20
2019-03-20T20:27:42.039Z,11.30
2019-03-20T20:30:15.695Z,11.30
2019-03-20T20:32:44.663Z,11.30
2019-03-20T20:35:13.985Z,11.30
2019-03-20T20:37:43.063Z,11.30
2019-03-20T20:40:14.236Z,11.30
2019-03-20T20:42:43.496Z,11.30
2019-03-20T20:45:12.975Z,11.40
2019-03-20T20:47:42.043Z,11.30
2019-03-20T20:50:11.327Z,11.30
2019-03-20T20:52:40.359Z,11.30
2019-03-20T20:55:10.576Z,11.30
2019-03-20T20:57:39.639Z,11.30
2019-03-20T21:00:12.979Z,11.30
2019-03-20T21:02:42.096Z,11.30
2019-03-20T21:05:11.152Z,11.30
2019-03-20T21:07:40.213Z,11.30
2019-03-20T21:10:10.435Z,11.30
2019-03-20T21:12:39.440Z,11.30
2019-03-20T21:15:19.876Z,11.30
2019-03-20T21:18:24.300Z,11.30
2019-03-20T21:20:53.731Z,11.20
2019-03-20T21:24:08.731Z,11.30
2019-03-20T21:26:43.332Z,11.30
2019-03-20T21:29:36.016Z,11.20
2019-03-20T21:32:15.731Z,11.20
2019-03-20T21:35:35.124Z,11.20
2019-03-20T21:38:06.444Z,11.20
2019-03-20T21:41:15.508Z,11.20
2019-03-20T21:44:28.872Z,11.20
2019-03-20T21:47:31.804Z,11.20
2019-03-20T21:50:07.708Z,11.30
2019-03-20T21:52:37.430Z,11.30
2019-03-20T21:55:50.924Z,11.30
2019-03-20T21:58:29.544Z,11.30
2019-03-20T22:01:46.180Z,11.30
2019-03-20T22:04:15.728Z,11.30
2019-03-20T22:07:22.585Z,11.30
2019-03-20T22:10:34.716Z,11.30
2019-03-20T22:13:41.917Z,11.30
2019-03-20T22:16:51.326Z,11.20
2019-03-20T22:19:51.105Z,11.20
2019-03-20T22:23:12.413Z,11.20
2019-03-20T22:26:03.337Z,11.20
2019-03-20T22:29:18.319Z,11.20
2019-03-20T22:32:16.773Z,11.20
2019-03-20T22:35:02.678Z,11.20
2019-03-20T22:37:32.233Z,11.20
2019-03-20T22:41:10.970Z,11.20
2019-03-20T22:43:51.067Z,11.10
2019-03-20T22:47:00.558Z,11.10
2019-03-20T22:49:55.393Z,11.10
2019-03-20T22:53:00.166Z,11.10
2019-03-20T22:55:48.221Z,11.10
2019-03-20T22:58:29.966Z,11.10
2019-03-20T23:00:59.607Z,11.10
2019-03-20T23:03:35.822Z,11.10
2019-03-20T23:06:05.474Z,11.10
2019-03-20T23:08:35.254Z,11.10
2019-03-20T23:11:04.754Z,11.10
2019-03-20T23:13:41.390Z,11.10
2019-03-20T23:16:06.782Z,11.10
2019-03-20T23:18:36.298Z,11.10
2019-03-20T23:21:05.873Z,11.00
2019-03-20T23:23:36.662Z,11.00
2019-03-20T23:26:06.170Z,11.00
2019-03-20T23:28:35.753Z,11.00
2019-03-20T23:31:05.337Z,11.00
2019-03-20T23:33:34.822Z,11.00
2019-03-20T23:36:04.582Z,11.00
2019-03-20T23:38:34.282Z,11.00
2019-03-20T23:41:03.878Z,11.00
2019-03-20T23:43:33.460Z,11.00
2019-03-20T23:46:03.474Z,11.00
2019-03-20T23:48:49.366Z,10.90
2019-03-20T23:56:18.706Z,10.90
2019-03-20T23:58:48.271Z,10.90
